sensor_id;sensor_type;location;lat;lon;timestamp;pressure;altitude;pressure_sealevel;temperature;humidity
49949;BME280;35840;45.982;8.890;2022-10-19T00:02:10;99176.97;;;14.86;76.53
49949;BME280;35840;45.982;8.890;2022-10-19T00:04:36;99186.88;;;14.79;75.53
49949;BME280;35840;45.982;8.890;2022-10-19T00:07:03;99187.25;;;14.73;76.61
49949;BME280;35840;45.982;8.890;2022-10-19T00:09:30;99187.38;;;14.71;76.68
49949;BME280;35840;45.982;8.890;2022-10-19T00:11:56;99185.56;;;14.59;77.62
49949;BME280;35840;45.982;8.890;2022-10-19T00:14:23;99183.69;;;14.61;78.13
49949;BME280;35840;45.982;8.890;2022-10-19T00:16:51;99183.41;;;14.66;77.20
49949;BME280;35840;45.982;8.890;2022-10-19T00:19:21;99177.41;;;14.65;77.75
49949;BME280;35840;45.982;8.890;2022-10-19T00:21:48;99183.50;;;14.64;77.66
49949;BME280;35840;45.982;8.890;2022-10-19T00:24:16;99182.28;;;14.70;76.41
49949;BME280;35840;45.982;8.890;2022-10-19T00:26:43;99179.53;;;14.58;76.88
49949;BME280;35840;45.982;8.890;2022-10-19T00:29:11;99179.00;;;14.53;76.95
49949;BME280;35840;45.982;8.890;2022-10-19T00:31:39;99181.19;;;14.59;76.32
49949;BME280;35840;45.982;8.890;2022-10-19T00:34:06;99172.88;;;14.54;76.94
49949;BME280;35840;45.982;8.890;2022-10-19T00:36:36;99177.34;;;14.52;77.69
49949;BME280;35840;45.982;8.890;2022-10-19T00:39:06;99174.75;;;14.52;76.89
49949;BME280;35840;45.982;8.890;2022-10-19T00:41:34;99173.50;;;14.45;76.76
49949;BME280;35840;45.982;8.890;2022-10-19T00:46:38;99166.44;;;14.47;76.54
49949;BME280;35840;45.982;8.890;2022-10-19T00:49:18;99162.50;;;14.41;76.74
49949;BME280;35840;45.982;8.890;2022-10-19T00:51:52;99162.38;;;14.43;77.08
49949;BME280;35840;45.982;8.890;2022-10-19T00:54:20;99153.59;;;14.45;77.52
49949;BME280;35840;45.982;8.890;2022-10-19T00:56:50;99152.13;;;14.41;76.37
49949;BME280;35840;45.982;8.890;2022-10-19T00:59:19;99148.75;;;14.41;76.06
49949;BME280;35840;45.982;8.890;2022-10-19T01:01:48;99146.56;;;14.35;77.03
49949;BME280;35840;45.982;8.890;2022-10-19T01:04:15;99155.03;;;14.37;76.63
49949;BME280;35840;45.982;8.890;2022-10-19T01:06:42;99151.63;;;14.36;76.91
49949;BME280;35840;45.982;8.890;2022-10-19T01:09:09;99151.72;;;14.35;77.10
49949;BME280;35840;45.982;8.890;2022-10-19T01:30:35;99128.19;;;14.25;76.59
49949;BME280;35840;45.982;8.890;2022-10-19T01:36:05;99132.63;;;14.23;77.13
49949;BME280;35840;45.982;8.890;2022-10-19T01:41:32;99125.50;;;14.26;75.98
49949;BME280;35840;45.982;8.890;2022-10-19T01:44:14;99124.34;;;14.18;76.86
49949;BME280;35840;45.982;8.890;2022-10-19T01:46:54;99118.72;;;14.11;77.64
49949;BME280;35840;45.982;8.890;2022-10-19T01:49:28;99115.22;;;14.12;77.54
49949;BME280;35840;45.982;8.890;2022-10-19T01:51:59;99115.94;;;14.14;77.26
49949;BME280;35840;45.982;8.890;2022-10-19T01:54:33;99106.91;;;14.07;76.88
49949;BME280;35840;45.982;8.890;2022-10-19T01:57:04;99104.22;;;14.08;77.70
49949;BME280;35840;45.982;8.890;2022-10-19T01:59:32;99101.72;;;14.07;77.14
49949;BME280;35840;45.982;8.890;2022-10-19T02:02:05;99105.97;;;14.08;76.60
49949;BME280;35840;45.982;8.890;2022-10-19T02:04:33;99110.50;;;14.04;76.88
49949;BME280;35840;45.982;8.890;2022-10-19T02:07:03;99103.75;;;14.02;77.61
49949;BME280;35840;45.982;8.890;2022-10-19T02:09:31;99112.28;;;14.04;76.38
49949;BME280;35840;45.982;8.890;2022-10-19T02:12:02;99109.03;;;14.00;76.72
49949;BME280;35840;45.982;8.890;2022-10-19T02:14:35;99108.66;;;14.06;75.93
49949;BME280;35840;45.982;8.890;2022-10-19T02:17:11;99102.28;;;13.98;76.89
49949;BME280;35840;45.982;8.890;2022-10-19T02:19:40;99099.81;;;13.96;77.35
49949;BME280;35840;45.982;8.890;2022-10-19T02:22:07;99102.38;;;13.96;77.25
49949;BME280;35840;45.982;8.890;2022-10-19T02:24:34;99095.22;;;13.87;77.02
49949;BME280;35840;45.982;8.890;2022-10-19T02:27:01;99100.09;;;13.91;76.93
49949;BME280;35840;45.982;8.890;2022-10-19T02:29:35;99092.44;;;13.90;77.29
49949;BME280;35840;45.982;8.890;2022-10-19T02:32:03;99094.94;;;13.91;76.21
49949;BME280;35840;45.982;8.890;2022-10-19T02:34:30;99102.44;;;13.82;76.89
49949;BME280;35840;45.982;8.890;2022-10-19T02:36:58;99098.28;;;13.79;77.08
49949;BME280;35840;45.982;8.890;2022-10-19T02:39:25;99095.53;;;13.82;76.62
49949;BME280;35840;45.982;8.890;2022-10-19T02:42:10;99095.88;;;13.76;76.70
49949;BME280;35840;45.982;8.890;2022-10-19T02:44:55;99093.94;;;13.80;76.24
49949;BME280;35840;45.982;8.890;2022-10-19T02:47:31;99084.44;;;13.80;75.98
49949;BME280;35840;45.982;8.890;2022-10-19T02:50:05;99088.59;;;13.83;76.31
49949;BME280;35840;45.982;8.890;2022-10-19T02:52:32;99091.28;;;13.81;75.94
49949;BME280;35840;45.982;8.890;2022-10-19T02:54:58;99082.97;;;13.76;77.06
49949;BME280;35840;45.982;8.890;2022-10-19T02:57:25;99079.84;;;13.71;77.23
49949;BME280;35840;45.982;8.890;2022-10-19T02:59:52;99078.72;;;13.75;77.01
49949;BME280;35840;45.982;8.890;2022-10-19T03:02:19;99076.13;;;13.75;76.63
49949;BME280;35840;45.982;8.890;2022-10-19T03:04:46;99074.38;;;13.75;77.17
49949;BME280;35840;45.982;8.890;2022-10-19T03:07:19;99076.06;;;13.76;76.57
49949;BME280;35840;45.982;8.890;2022-10-19T03:09:46;99076.06;;;13.76;77.34
49949;BME280;35840;45.982;8.890;2022-10-19T03:12:13;99070.63;;;13.67;78.24
49949;BME280;35840;45.982;8.890;2022-10-19T03:14:40;99071.53;;;13.66;78.25
49949;BME280;35840;45.982;8.890;2022-10-19T03:17:07;99070.97;;;13.60;77.24
49949;BME280;35840;45.982;8.890;2022-10-19T03:19:34;99072.00;;;13.58;77.64
49949;BME280;35840;45.982;8.890;2022-10-19T03:22:01;99067.31;;;13.50;77.92
49949;BME280;35840;45.982;8.890;2022-10-19T03:24:29;99071.28;;;13.56;77.52
49949;BME280;35840;45.982;8.890;2022-10-19T03:26:56;99072.09;;;13.56;77.10
49949;BME280;35840;45.982;8.890;2022-10-19T03:29:22;99065.75;;;13.48;77.15
49949;BME280;35840;45.982;8.890;2022-10-19T03:31:49;99071.56;;;13.51;77.52
49949;BME280;35840;45.982;8.890;2022-10-19T03:34:16;99072.84;;;13.58;75.88
49949;BME280;35840;45.982;8.890;2022-10-19T03:36:43;99078.47;;;13.51;76.54
49949;BME280;35840;45.982;8.890;2022-10-19T03:39:12;99075.78;;;13.52;76.46
49949;BME280;35840;45.982;8.890;2022-10-19T03:41:39;99073.94;;;13.54;76.04
49949;BME280;35840;45.982;8.890;2022-10-19T03:44:07;99071.19;;;13.43;77.20
49949;BME280;35840;45.982;8.890;2022-10-19T03:46:35;99075.91;;;13.36;77.28
49949;BME280;35840;45.982;8.890;2022-10-19T03:49:02;99080.41;;;13.33;77.50
49949;BME280;35840;45.982;8.890;2022-10-19T03:51:31;99079.66;;;13.31;77.82
49949;BME280;35840;45.982;8.890;2022-10-19T03:54:00;99075.81;;;13.38;76.96
49949;BME280;35840;45.982;8.890;2022-10-19T03:56:28;99082.88;;;13.34;76.97
49949;BME280;35840;45.982;8.890;2022-10-19T03:58:58;99074.06;;;13.38;76.14
49949;BME280;35840;45.982;8.890;2022-10-19T04:03:58;99074.06;;;13.38;78.11
49949;BME280;35840;45.982;8.890;2022-10-19T04:06:29;99069.41;;;13.29;77.37
49949;BME280;35840;45.982;8.890;2022-10-19T04:08:57;99070.06;;;13.33;76.98
49949;BME280;35840;45.982;8.890;2022-10-19T04:11:28;99070.06;;;13.33;77.27
49949;BME280;35840;45.982;8.890;2022-10-19T04:13:56;99072.91;;;13.28;77.48
49949;BME280;35840;45.982;8.890;2022-10-19T04:16:25;99071.06;;;13.30;76.95
49949;BME280;35840;45.982;8.890;2022-10-19T04:18:52;99066.91;;;13.27;77.53
49949;BME280;35840;45.982;8.890;2022-10-19T04:23:46;99061.38;;;13.19;76.97
49949;BME280;35840;45.982;8.890;2022-10-19T04:26:12;99056.78;;;13.24;77.04
49949;BME280;35840;45.982;8.890;2022-10-19T04:28:39;99060.00;;;13.28;77.01
49949;BME280;35840;45.982;8.890;2022-10-19T04:31:06;99051.34;;;13.29;76.35
49949;BME280;35840;45.982;8.890;2022-10-19T04:33:33;99067.31;;;13.21;77.53
49949;BME280;35840;45.982;8.890;2022-10-19T04:36:05;99054.84;;;13.14;77.24
49949;BME280;35840;45.982;8.890;2022-10-19T04:38:33;99051.34;;;13.15;77.72
49949;BME280;35840;45.982;8.890;2022-10-19T04:41:05;99054.59;;;13.18;76.85
49949;BME280;35840;45.982;8.890;2022-10-19T04:43:32;99046.09;;;13.16;77.47
49949;BME280;35840;45.982;8.890;2022-10-19T04:46:09;99058.38;;;13.13;77.92
49949;BME280;35840;45.982;8.890;2022-10-19T04:48:37;99056.50;;;13.15;77.48
49949;BME280;35840;45.982;8.890;2022-10-19T04:51:04;99054.22;;;13.10;78.63
49949;BME280;35840;45.982;8.890;2022-10-19T04:53:31;99053.34;;;13.09;78.49
49949;BME280;35840;45.982;8.890;2022-10-19T04:55:58;99051.06;;;13.05;78.62
49949;BME280;35840;45.982;8.890;2022-10-19T04:58:26;99061.00;;;13.11;78.83
49949;BME280;35840;45.982;8.890;2022-10-19T05:00:52;99061.84;;;13.12;77.82
49949;BME280;35840;45.982;8.890;2022-10-19T05:03:19;99055.13;;;13.09;76.88
49949;BME280;35840;45.982;8.890;2022-10-19T05:05:46;99061.56;;;13.02;77.81
49949;BME280;35840;45.982;8.890;2022-10-19T05:08:12;99065.72;;;13.04;78.03
49949;BME280;35840;45.982;8.890;2022-10-19T05:10:39;99060.75;;;13.01;77.55
49949;BME280;35840;45.982;8.890;2022-10-19T05:13:12;99056.59;;;12.99;76.59
49949;BME280;35840;45.982;8.890;2022-10-19T05:15:39;99052.88;;;12.88;77.62
49949;BME280;35840;45.982;8.890;2022-10-19T05:18:06;99043.31;;;12.90;77.21
49949;BME280;35840;45.982;8.890;2022-10-19T05:20:32;99055.28;;;12.91;77.92
49949;BME280;35840;45.982;8.890;2022-10-19T05:22:59;99057.88;;;12.91;77.53
49949;BME280;35840;45.982;8.890;2022-10-19T05:25:32;99058.03;;;12.88;78.46
49949;BME280;35840;45.982;8.890;2022-10-19T05:27:59;99051.78;;;12.92;78.34
49949;BME280;35840;45.982;8.890;2022-10-19T05:30:26;99061.84;;;12.97;77.38
49949;BME280;35840;45.982;8.890;2022-10-19T05:32:52;99060.56;;;12.90;77.07
49949;BME280;35840;45.982;8.890;2022-10-19T05:35:19;99037.03;;;12.80;76.28
49949;BME280;35840;45.982;8.890;2022-10-19T05:37:53;99050.13;;;12.91;76.67
49949;BME280;35840;45.982;8.890;2022-10-19T05:40:19;99059.50;;;12.92;77.27
49949;BME280;35840;45.982;8.890;2022-10-19T05:42:46;99049.03;;;12.96;76.96
49949;BME280;35840;45.982;8.890;2022-10-19T05:45:13;99049.28;;;12.91;75.93
49949;BME280;35840;45.982;8.890;2022-10-19T05:47:39;99047.81;;;12.87;77.64
49949;BME280;35840;45.982;8.890;2022-10-19T05:50:06;99046.88;;;12.88;77.16
49949;BME280;35840;45.982;8.890;2022-10-19T05:52:33;99043.31;;;12.90;76.03
49949;BME280;35840;45.982;8.890;2022-10-19T05:55:00;99045.31;;;12.85;77.05
49949;BME280;35840;45.982;8.890;2022-10-19T05:57:26;99046.25;;;12.84;76.53
49949;BME280;35840;45.982;8.890;2022-10-19T05:59:53;99045.31;;;12.85;78.10
49949;BME280;35840;45.982;8.890;2022-10-19T06:02:22;99047.34;;;12.80;78.36
49949;BME280;35840;45.982;8.890;2022-10-19T06:04:49;99042.91;;;12.82;76.85
49949;BME280;35840;45.982;8.890;2022-10-19T06:07:15;99054.25;;;12.80;77.67
49949;BME280;35840;45.982;8.890;2022-10-19T06:09:42;99051.31;;;12.86;77.35
49949;BME280;35840;45.982;8.890;2022-10-19T06:12:09;99052.25;;;12.85;77.12
49949;BME280;35840;45.982;8.890;2022-10-19T06:14:35;99054.34;;;12.78;78.33
49949;BME280;35840;45.982;8.890;2022-10-19T06:17:02;99058.31;;;12.84;78.25
49949;BME280;35840;45.982;8.890;2022-10-19T06:19:29;99056.00;;;12.79;78.79
49949;BME280;35840;45.982;8.890;2022-10-19T06:21:56;99062.84;;;12.80;79.49
49949;BME280;35840;45.982;8.890;2022-10-19T06:24:23;99061.34;;;12.76;80.23
49949;BME280;35840;45.982;8.890;2022-10-19T06:26:50;99061.91;;;12.81;79.40
49949;BME280;35840;45.982;8.890;2022-10-19T06:29:17;99068.81;;;12.81;79.82
49949;BME280;35840;45.982;8.890;2022-10-19T06:31:47;99069.41;;;12.86;78.86
49949;BME280;35840;45.982;8.890;2022-10-19T06:34:14;99068.91;;;12.79;79.15
49949;BME280;35840;45.982;8.890;2022-10-19T06:36:41;99077.94;;;12.86;79.72
49949;BME280;35840;45.982;8.890;2022-10-19T06:39:08;99081.34;;;12.87;79.79
49949;BME280;35840;45.982;8.890;2022-10-19T06:41:35;99075.47;;;12.85;80.39
49949;BME280;35840;45.982;8.890;2022-10-19T06:44:16;99080.44;;;12.88;81.06
49949;BME280;35840;45.982;8.890;2022-10-19T06:46:43;99077.94;;;12.86;82.21
49949;BME280;35840;45.982;8.890;2022-10-19T06:49:11;99077.59;;;12.92;81.42
49949;BME280;35840;45.982;8.890;2022-10-19T06:51:38;99074.28;;;12.90;81.17
49949;BME280;35840;45.982;8.890;2022-10-19T06:54:06;99082.66;;;12.94;81.05
49949;BME280;35840;45.982;8.890;2022-10-19T06:56:33;99079.06;;;12.97;81.49
49949;BME280;35840;45.982;8.890;2022-10-19T06:59:01;99088.88;;;13.06;81.98
49949;BME280;35840;45.982;8.890;2022-10-19T07:01:27;99094.66;;;13.09;82.10
49949;BME280;35840;45.982;8.890;2022-10-19T07:03:54;99100.50;;;13.13;81.97
49949;BME280;35840;45.982;8.890;2022-10-19T07:06:22;99098.28;;;13.21;82.30
49949;BME280;35840;45.982;8.890;2022-10-19T07:08:49;99097.91;;;13.27;82.72
49949;BME280;35840;45.982;8.890;2022-10-19T07:11:18;99092.56;;;13.31;83.61
49949;BME280;35840;45.982;8.890;2022-10-19T07:13:45;99092.31;;;13.35;83.19
49949;BME280;35840;45.982;8.890;2022-10-19T07:16:14;99094.63;;;13.40;83.49
49949;BME280;35840;45.982;8.890;2022-10-19T07:18:46;99092.47;;;13.47;83.33
49949;BME280;35840;45.982;8.890;2022-10-19T07:21:15;99090.28;;;13.55;84.09
49949;BME280;35840;45.982;8.890;2022-10-19T07:23:45;99088.25;;;13.60;83.88
49949;BME280;35840;45.982;8.890;2022-10-19T07:26:15;99091.66;;;13.60;83.57
49949;BME280;35840;45.982;8.890;2022-10-19T07:28:45;99091.66;;;13.60;84.22
49949;BME280;35840;45.982;8.890;2022-10-19T07:31:14;99088.16;;;13.62;83.67
49949;BME280;35840;45.982;8.890;2022-10-19T07:33:43;99094.78;;;13.66;83.43
49949;BME280;35840;45.982;8.890;2022-10-19T07:36:11;99096.28;;;13.70;83.91
49949;BME280;35840;45.982;8.890;2022-10-19T07:38:39;99090.00;;;13.74;83.69
49949;BME280;35840;45.982;8.890;2022-10-19T07:41:09;99087.31;;;13.75;84.12
49949;BME280;35840;45.982;8.890;2022-10-19T07:43:39;99083.81;;;13.76;84.10
49949;BME280;35840;45.982;8.890;2022-10-19T07:46:27;99093.09;;;13.79;84.66
49949;BME280;35840;45.982;8.890;2022-10-19T07:48:54;99085.91;;;13.84;84.47
49949;BME280;35840;45.982;8.890;2022-10-19T07:51:21;99078.88;;;13.86;84.11
49949;BME280;35840;45.982;8.890;2022-10-19T07:53:48;99082.09;;;13.90;84.63
49949;BME280;35840;45.982;8.890;2022-10-19T07:56:23;99085.41;;;13.92;84.94
49949;BME280;35840;45.982;8.890;2022-10-19T07:58:52;99092.34;;;13.91;84.94
49949;BME280;35840;45.982;8.890;2022-10-19T08:01:27;99086.25;;;13.92;85.63
49949;BME280;35840;45.982;8.890;2022-10-19T08:03:55;99079.88;;;13.98;85.90
49949;BME280;35840;45.982;8.890;2022-10-19T08:06:42;99078.75;;;14.02;85.03
49949;BME280;35840;45.982;8.890;2022-10-19T08:09:09;99076.28;;;14.01;85.69
49949;BME280;35840;45.982;8.890;2022-10-19T08:11:48;99075.88;;;14.07;86.35
49949;BME280;35840;45.982;8.890;2022-10-19T08:14:15;99071.16;;;14.14;86.12
49949;BME280;35840;45.982;8.890;2022-10-19T08:16:42;99068.25;;;14.18;86.20
49949;BME280;35840;45.982;8.890;2022-10-19T08:19:12;99075.91;;;14.20;86.18
49949;BME280;35840;45.982;8.890;2022-10-19T08:21:42;99065.38;;;14.23;86.60
49949;BME280;35840;45.982;8.890;2022-10-19T08:24:10;99071.91;;;14.28;86.27
49949;BME280;35840;45.982;8.890;2022-10-19T08:26:39;99065.41;;;14.36;86.50
49949;BME280;35840;45.982;8.890;2022-10-19T08:31:38;99064.19;;;14.41;85.89
49949;BME280;35840;45.982;8.890;2022-10-19T08:34:05;99063.16;;;14.44;86.67
49949;BME280;35840;45.982;8.890;2022-10-19T08:36:32;99060.91;;;14.52;86.34
49949;BME280;35840;45.982;8.890;2022-10-19T08:39:03;99057.66;;;14.63;86.73
49949;BME280;35840;45.982;8.890;2022-10-19T08:44:29;99064.25;;;14.67;86.53
49949;BME280;35840;45.982;8.890;2022-10-19T08:49:52;99054.13;;;14.77;86.57
49949;BME280;35840;45.982;8.890;2022-10-19T08:52:33;99053.94;;;14.80;86.19
49949;BME280;35840;45.982;8.890;2022-10-19T08:55:07;99055.47;;;14.83;85.46
49949;BME280;35840;45.982;8.890;2022-10-19T08:58:15;99047.72;;;14.83;85.09
49949;BME280;35840;45.982;8.890;2022-10-19T09:01:14;99050.63;;;14.91;85.21
49949;BME280;35840;45.982;8.890;2022-10-19T09:09:15;99038.91;;;15.11;84.10
49949;BME280;35840;45.982;8.890;2022-10-19T09:11:47;99043.16;;;15.25;83.79
49949;BME280;35840;45.982;8.890;2022-10-19T09:14:28;99048.41;;;15.36;82.43
49949;BME280;35840;45.982;8.890;2022-10-19T09:17:02;99045.19;;;15.45;81.91
49949;BME280;35840;45.982;8.890;2022-10-19T09:19:29;99048.50;;;15.47;81.38
49949;BME280;35840;45.982;8.890;2022-10-19T09:22:02;99040.09;;;15.57;80.22
49949;BME280;35840;45.982;8.890;2022-10-19T09:27:20;99043.63;;;15.56;79.29
49949;BME280;35840;45.982;8.890;2022-10-19T09:29:55;99046.44;;;15.53;78.38
49949;BME280;35840;45.982;8.890;2022-10-19T09:32:38;99041.13;;;15.54;78.39
49949;BME280;35840;45.982;8.890;2022-10-19T09:35:22;99042.88;;;15.66;80.35
49949;BME280;35840;45.982;8.890;2022-10-19T09:37:50;99044.09;;;15.74;79.04
49949;BME280;35840;45.982;8.890;2022-10-19T09:40:21;99033.50;;;15.77;77.08
49949;BME280;35840;45.982;8.890;2022-10-19T09:42:48;99039.22;;;15.82;78.67
49949;BME280;35840;45.982;8.890;2022-10-19T09:45:37;99034.06;;;15.93;77.61
49949;BME280;35840;45.982;8.890;2022-10-19T09:48:16;99036.59;;;15.95;78.08
49949;BME280;35840;45.982;8.890;2022-10-19T09:50:50;99030.72;;;16.04;79.20
49949;BME280;35840;45.982;8.890;2022-10-19T09:53:20;99032.25;;;16.07;78.75
49949;BME280;35840;45.982;8.890;2022-10-19T09:55:56;99035.84;;;16.17;78.00
49949;BME280;35840;45.982;8.890;2022-10-19T09:58:26;99034.34;;;16.26;78.20
49949;BME280;35840;45.982;8.890;2022-10-19T10:01:00;99027.56;;;16.36;79.80
49949;BME280;35840;45.982;8.890;2022-10-19T10:03:37;99031.34;;;16.43;77.15
49949;BME280;35840;45.982;8.890;2022-10-19T10:06:08;99026.03;;;16.45;77.68
49949;BME280;35840;45.982;8.890;2022-10-19T10:08:38;99023.31;;;16.46;77.06
49949;BME280;35840;45.982;8.890;2022-10-19T10:11:35;99025.34;;;16.54;75.83
49949;BME280;35840;45.982;8.890;2022-10-19T10:14:08;99021.25;;;16.63;76.74
49949;BME280;35840;45.982;8.890;2022-10-19T10:16:41;99029.75;;;16.65;76.83
49949;BME280;35840;45.982;8.890;2022-10-19T10:19:12;99025.97;;;16.69;73.55
49949;BME280;35840;45.982;8.890;2022-10-19T10:21:47;99031.53;;;16.76;73.77
49949;BME280;35840;45.982;8.890;2022-10-19T10:24:17;99031.53;;;16.76;73.40
49949;BME280;35840;45.982;8.890;2022-10-19T10:26:50;99023.03;;;16.74;73.03
49949;BME280;35840;45.982;8.890;2022-10-19T10:29:20;99023.56;;;16.90;75.80
49949;BME280;35840;45.982;8.890;2022-10-19T10:31:53;99023.34;;;17.04;74.63
49949;BME280;35840;45.982;8.890;2022-10-19T10:34:31;99028.16;;;17.09;74.36
49949;BME280;35840;45.982;8.890;2022-10-19T10:39:51;99010.09;;;17.19;72.91
49949;BME280;35840;45.982;8.890;2022-10-19T10:42:23;99017.06;;;17.18;71.56
49949;BME280;35840;45.982;8.890;2022-10-19T10:44:53;98994.50;;;17.08;70.86
49949;BME280;35840;45.982;8.890;2022-10-19T10:47:22;99009.28;;;17.07;72.13
49949;BME280;35840;45.982;8.890;2022-10-19T10:49:55;99003.84;;;17.10;71.05
49949;BME280;35840;45.982;8.890;2022-10-19T10:52:24;98997.22;;;17.17;71.05
49949;BME280;35840;45.982;8.890;2022-10-19T10:57:42;98990.59;;;17.25;69.38
49949;BME280;35840;45.982;8.890;2022-10-19T11:02:50;98986.09;;;17.49;69.85
49949;BME280;35840;45.982;8.890;2022-10-19T11:05:24;98984.66;;;17.57;69.68
49949;BME280;35840;45.982;8.890;2022-10-19T11:08:03;98983.47;;;17.61;69.56
49949;BME280;35840;45.982;8.890;2022-10-19T11:10:36;98974.91;;;17.70;68.71
49949;BME280;35840;45.982;8.890;2022-10-19T11:13:15;98968.84;;;17.81;70.46
49949;BME280;35840;45.982;8.890;2022-10-19T11:15:58;98972.28;;;17.81;70.38
49949;BME280;35840;45.982;8.890;2022-10-19T11:18:30;98963.03;;;17.88;71.13
49949;BME280;35840;45.982;8.890;2022-10-19T11:21:05;98962.59;;;17.83;69.34
49949;BME280;35840;45.982;8.890;2022-10-19T11:31:55;98950.16;;;18.19;69.34
49949;BME280;35840;45.982;8.890;2022-10-19T11:53:42;98913.84;;;18.70;66.89
49949;BME280;35840;45.982;8.890;2022-10-19T11:56:41;98907.50;;;18.72;65.70
49949;BME280;35840;45.982;8.890;2022-10-19T11:59:53;98906.44;;;18.75;64.99
49949;BME280;35840;45.982;8.890;2022-10-19T12:05:27;98898.13;;;18.81;64.43
49949;BME280;35840;45.982;8.890;2022-10-19T12:10:44;98894.22;;;19.06;64.15
49949;BME280;35840;45.982;8.890;2022-10-19T12:13:26;98886.78;;;18.92;63.79
49949;BME280;35840;45.982;8.890;2022-10-19T12:15:57;98889.69;;;18.99;65.17
49949;BME280;35840;45.982;8.890;2022-10-19T12:18:38;98883.94;;;19.15;62.91
49949;BME280;35840;45.982;8.890;2022-10-19T12:21:24;98879.81;;;19.12;63.86
49949;BME280;35840;45.982;8.890;2022-10-19T12:23:52;98873.94;;;19.20;66.18
49949;BME280;35840;45.982;8.890;2022-10-19T12:26:21;98879.31;;;19.28;66.02
49949;BME280;35840;45.982;8.890;2022-10-19T12:28:54;98872.59;;;19.25;65.60
49949;BME280;35840;45.982;8.890;2022-10-19T12:31:25;98868.88;;;19.48;64.51
49949;BME280;35840;45.982;8.890;2022-10-19T12:36:55;98869.72;;;19.38;62.74
49949;BME280;35840;45.982;8.890;2022-10-19T12:42:24;98857.91;;;19.34;61.33
49949;BME280;35840;45.982;8.890;2022-10-19T12:45:17;98852.03;;;19.32;60.49
49949;BME280;35840;45.982;8.890;2022-10-19T13:06:40;98845.13;;;19.80;63.61
49949;BME280;35840;45.982;8.890;2022-10-19T13:09:08;98837.88;;;19.84;64.58
49949;BME280;35840;45.982;8.890;2022-10-19T13:22:45;98823.41;;;19.99;65.35
49949;BME280;35840;45.982;8.890;2022-10-19T13:27:50;98823.44;;;20.27;65.88
49949;BME280;35840;45.982;8.890;2022-10-19T13:41:22;98805.63;;;20.50;62.57
49949;BME280;35840;45.982;8.890;2022-10-19T13:55:04;98786.38;;;20.79;59.88
49949;BME280;35840;45.982;8.890;2022-10-19T13:57:45;98785.84;;;20.75;59.81
49949;BME280;35840;45.982;8.890;2022-10-19T14:00:22;98788.75;;;20.72;62.32
49949;BME280;35840;45.982;8.890;2022-10-19T14:03:07;98791.91;;;20.76;62.72
49949;BME280;35840;45.982;8.890;2022-10-19T14:11:19;98775.25;;;20.95;61.56
49949;BME280;35840;45.982;8.890;2022-10-19T14:14:10;98785.22;;;21.09;61.64
49949;BME280;35840;45.982;8.890;2022-10-19T14:16:55;98787.38;;;21.14;60.65
49949;BME280;35840;45.982;8.890;2022-10-19T14:19:31;98783.63;;;21.17;60.62
49949;BME280;35840;45.982;8.890;2022-10-19T14:22:00;98785.09;;;21.19;61.77
49949;BME280;35840;45.982;8.890;2022-10-19T14:24:33;98782.34;;;21.21;60.64
49949;BME280;35840;45.982;8.890;2022-10-19T14:27:03;98784.28;;;21.19;60.54
49949;BME280;35840;45.982;8.890;2022-10-19T14:29:44;98784.94;;;21.21;60.46
49949;BME280;35840;45.982;8.890;2022-10-19T14:32:12;98780.09;;;21.26;59.13
49949;BME280;35840;45.982;8.890;2022-10-19T14:34:40;98781.44;;;21.30;61.37
49949;BME280;35840;45.982;8.890;2022-10-19T14:37:19;98776.13;;;21.22;60.53
49949;BME280;35840;45.982;8.890;2022-10-19T14:40:04;98776.81;;;21.24;59.22
49949;BME280;35840;45.982;8.890;2022-10-19T14:42:40;98783.41;;;21.28;61.16
49949;BME280;35840;45.982;8.890;2022-10-19T14:45:16;98770.31;;;21.28;59.17
49949;BME280;35840;45.982;8.890;2022-10-19T14:50:47;98773.28;;;21.33;60.87
49949;BME280;35840;45.982;8.890;2022-10-19T14:56:25;98786.50;;;21.31;62.88
49949;BME280;35840;45.982;8.890;2022-10-19T15:00:06;98774.13;;;21.33;62.86
49949;BME280;35840;45.982;8.890;2022-10-19T15:02:23;98781.81;;;21.35;65.22
49949;BME280;35840;45.982;8.890;2022-10-19T15:04:53;98778.81;;;21.30;63.36
49949;BME280;35840;45.982;8.890;2022-10-19T15:07:32;98781.91;;;21.25;63.45
49949;BME280;35840;45.982;8.890;2022-10-19T15:10:03;98779.22;;;21.17;63.98
49949;BME280;35840;45.982;8.890;2022-10-19T15:12:36;98778.31;;;21.08;64.32
49949;BME280;35840;45.982;8.890;2022-10-19T15:15:31;98776.09;;;20.95;65.02
49949;BME280;35840;45.982;8.890;2022-10-19T15:20:31;98764.13;;;20.65;66.10
49949;BME280;35840;45.982;8.890;2022-10-19T15:23:40;98780.41;;;20.59;65.71
49949;BME280;35840;45.982;8.890;2022-10-19T15:28:53;98786.84;;;20.37;67.22
49949;BME280;35840;45.982;8.890;2022-10-19T15:31:26;98772.00;;;20.09;67.53
49949;BME280;35840;45.982;8.890;2022-10-19T15:33:55;98777.50;;;20.06;68.42
49949;BME280;35840;45.982;8.890;2022-10-19T15:36:23;98775.34;;;19.92;68.95
49949;BME280;35840;45.982;8.890;2022-10-19T15:41:43;98776.50;;;19.60;70.15
49949;BME280;35840;45.982;8.890;2022-10-19T15:44:39;98776.66;;;19.49;71.22
49949;BME280;35840;45.982;8.890;2022-10-19T15:52:14;98786.97;;;19.21;71.77
49949;BME280;35840;45.982;8.890;2022-10-19T15:54:41;98781.47;;;19.14;72.51
49949;BME280;35840;45.982;8.890;2022-10-19T15:57:37;98784.09;;;19.04;73.16
49949;BME280;35840;45.982;8.890;2022-10-19T16:00:14;98783.66;;;18.99;73.86
49949;BME280;35840;45.982;8.890;2022-10-19T16:02:41;98783.50;;;18.91;73.95
49949;BME280;35840;45.982;8.890;2022-10-19T16:05:08;98794.19;;;18.88;73.90
49949;BME280;35840;45.982;8.890;2022-10-19T16:07:38;98793.34;;;18.78;74.96
49949;BME280;35840;45.982;8.890;2022-10-19T16:10:06;98790.84;;;18.66;75.38
49949;BME280;35840;45.982;8.890;2022-10-19T16:12:33;98791.41;;;18.60;75.38
49949;BME280;35840;45.982;8.890;2022-10-19T16:15:00;98790.81;;;18.56;75.64
49949;BME280;35840;45.982;8.890;2022-10-19T16:17:26;98786.94;;;18.41;75.37
49949;BME280;35840;45.982;8.890;2022-10-19T16:19:53;98787.34;;;18.36;75.56